Winthrop, Washington
Current Conditions -  °F | °C
As of 1:53 AM on Friday 24 Oct 2014 (Local Time) from KOMK Reporting Station
Clear Clear  
Wind Chill: 35°   Ceiling: Unl
Heat Index: 41°   Visibility: 10mi
Dew Point: 33°   Wind: 9mph
Humidity: 73%   Direction: 280°W
Pressure: 29.98"   Gusts: NA
Location:  48.48°N, 120.19°W
Report Text: KOMK 240853Z AUTO 28008KT 10SM CLR 05/01 A2998 RMK AO2 SLP158 T00500006 51021
Loading
Personal Weather Stations






























Interactive Weather Map
Tropical Storm Tracking
New forecast layout! Learn more

10-Day Weather Forecast

Advertisements
Track Severe Weather on mobile